Time;durP1;ratioP1;P1;durP2;ratioP2;P2;SDS_P1;SDS_P2;PMS_P1;PMS_P2;Temp;Humidity;BMP_temperature;BMP_pressure;BME280_temperature;BME280_humidity;BME280_pressure;Samples;Min_cycle;Max_cycle;Signal;HPM_P1;HPM_P2
2023/05/20 00:02:15;;;;;;;5.70;5.30;;;13.40;99.90;;;;;;6141210;23;21017;-77
2023/05/20 00:04:42;;;;;;;5.27;4.77;;;13.40;99.90;;;;;;6143556;23;20450;-77
2023/05/20 00:07:09;;;;;;;5.93;5.43;;;13.40;99.90;;;;;;6148935;23;20470;-77
2023/05/20 00:09:38;;;;;;;8.23;5.70;;;13.40;99.90;;;;;;6137822;23;20477;-77
2023/05/20 00:12:05;;;;;;;6.50;5.87;;;13.40;99.90;;;;;;6137788;23;20431;-77
2023/05/20 00:14:32;;;;;;;5.53;5.03;;;13.30;99.90;;;;;;6147678;23;20516;-77
2023/05/20 00:17:01;;;;;;;6.47;5.60;;;13.30;99.90;;;;;;6141316;23;20447;-76
2023/05/20 00:19:28;;;;;;;5.63;5.13;;;13.30;99.90;;;;;;6136910;23;20467;-77
2023/05/20 00:21:56;;;;;;;6.50;5.87;;;13.30;99.90;;;;;;6148422;23;20524;-77
2023/05/20 00:24:24;;;;;;;6.10;5.50;;;13.20;99.90;;;;;;6140100;23;20469;-77
2023/05/20 00:26:51;;;;;;;5.97;5.37;;;13.20;99.90;;;;;;6145829;23;20736;-77
2023/05/20 00:29:18;;;;;;;6.13;5.63;;;13.20;99.90;;;;;;6147771;23;20460;-77
2023/05/20 00:31:45;;;;;;;6.40;5.80;;;13.20;99.90;;;;;;6134035;23;20485;-77
2023/05/20 00:34:13;;;;;;;5.60;5.10;;;13.20;99.90;;;;;;6142546;23;20490;-77
2023/05/20 00:36:41;;;;;;;5.70;5.20;;;13.20;99.90;;;;;;6136230;23;20451;-77
2023/05/20 00:39:09;;;;;;;5.37;4.90;;;13.20;99.90;;;;;;6142469;23;20468;-77
2023/05/20 00:41:35;;;;;;;6.37;5.77;;;13.20;99.90;;;;;;6140855;23;20960;-77
2023/05/20 00:44:02;;;;;;;5.57;5.07;;;13.20;99.90;;;;;;6147306;23;20785;-77
2023/05/20 00:46:30;;;;;;;6.60;4.53;;;13.30;99.90;;;;;;6139624;23;20538;-77
2023/05/20 00:48:57;;;;;;;5.67;5.07;;;13.30;99.90;;;;;;6144869;23;20510;-77
2023/05/20 00:51:26;;;;;;;4.83;4.43;;;13.40;99.90;;;;;;6140907;23;20436;-77
2023/05/20 00:53:53;;;;;;;5.33;4.93;;;13.40;99.90;;;;;;6149793;23;20449;-77
2023/05/20 00:56:20;;;;;;;6.30;5.20;;;13.40;99.90;;;;;;6146972;23;20954;-76
2023/05/20 00:58:47;;;;;;;5.43;4.93;;;13.50;99.90;;;;;;6138953;23;20495;-77
2023/05/20 01:01:15;;;;;;;4.70;4.30;;;13.50;99.90;;;;;;6139364;23;20713;-77
2023/05/20 01:03:42;;;;;;;6.43;5.10;;;13.50;99.90;;;;;;6146690;23;20455;-77
2023/05/20 01:06:09;;;;;;;5.30;4.90;;;13.50;99.90;;;;;;6145194;23;20569;-77
2023/05/20 01:08:38;;;;;;;5.80;5.20;;;13.50;99.90;;;;;;6145100;23;20531;-77
2023/05/20 01:11:08;;;;;;;4.97;4.57;;;13.60;99.90;;;;;;6144995;23;20462;-78
2023/05/20 01:13:42;;;;;;;4.60;4.20;;;13.60;99.90;;;;;;6149496;23;20430;-77
2023/05/20 01:16:11;;;;;;;5.10;4.67;;;13.60;99.90;;;;;;6136617;23;20483;-77
2023/05/20 01:18:39;;;;;;;4.70;4.40;;;13.60;99.90;;;;;;6135872;23;20430;-77
2023/05/20 01:21:10;;;;;;;4.97;4.57;;;13.60;99.90;;;;;;6140737;23;20434;-78
2023/05/20 01:23:40;;;;;;;4.80;4.40;;;13.60;99.90;;;;;;6153021;23;20439;-77
2023/05/20 01:26:09;;;;;;;5.30;4.73;;;13.60;99.90;;;;;;6147219;23;20466;-77
2023/05/20 01:28:37;;;;;;;5.00;4.60;;;13.70;99.90;;;;;;6147648;23;20511;-78
2023/05/20 01:31:10;;;;;;;4.93;4.53;;;13.70;99.90;;;;;;6147998;23;20435;-78
2023/05/20 01:33:40;;;;;;;5.20;4.80;;;13.70;99.90;;;;;;6137190;23;20434;-78
2023/05/20 01:36:09;;;;;;;5.50;4.90;;;13.70;99.90;;;;;;6140610;23;20769;-77
2023/05/20 01:38:40;;;;;;;4.90;4.50;;;13.70;99.90;;;;;;6142720;23;20460;-77
2023/05/20 01:41:07;;;;;;;5.20;4.77;;;13.60;99.90;;;;;;6147676;23;20466;-78
2023/05/20 01:43:36;;;;;;;7.47;4.90;;;13.60;99.90;;;;;;6137228;23;20481;-78
2023/05/20 01:46:06;;;;;;;5.50;4.47;;;13.60;99.90;;;;;;6146784;23;20474;-78
2023/05/20 01:48:34;;;;;;;4.50;4.17;;;13.60;99.90;;;;;;6133913;23;20438;-80
2023/05/20 01:51:01;;;;;;;5.10;4.70;;;13.50;99.90;;;;;;6140591;23;21167;-77
2023/05/20 01:53:28;;;;;;;5.37;4.87;;;13.50;99.90;;;;;;6138345;23;20430;-76
2023/05/20 01:55:57;;;;;;;4.63;4.23;;;13.50;99.90;;;;;;6143945;23;20462;-77
2023/05/20 01:58:24;;;;;;;4.63;4.23;;;13.50;99.90;;;;;;6137540;23;20433;-77
2023/05/20 02:00:51;;;;;;;4.77;4.40;;;13.80;99.90;;;;;;6136984;23;20446;-77
2023/05/20 02:03:18;;;;;;;4.73;4.37;;;13.70;99.90;;;;;;6141827;23;20468;-77
2023/05/20 02:05:45;;;;;;;4.90;4.50;;;13.60;99.90;;;;;;6135030;23;20829;-77
2023/05/20 02:08:12;;;;;;;4.53;4.20;;;13.50;99.90;;;;;;6140444;23;20427;-76
2023/05/20 02:10:39;;;;;;;5.00;3.80;;;13.80;99.90;;;;;;6142860;23;20449;-77
2023/05/20 02:13:08;;;;;;;4.93;4.53;;;13.80;99.90;;;;;;6147508;23;20438;-77
2023/05/20 02:15:35;;;;;;;4.80;4.40;;;13.50;99.90;;;;;;6146189;23;20461;-77
2023/05/20 02:18:04;;;;;;;4.90;4.43;;;13.50;99.90;;;;;;6140645;23;20725;-77
2023/05/20 02:20:31;;;;;;;4.60;4.30;;;13.50;99.90;;;;;;6143874;23;20449;-77
2023/05/20 02:22:58;;;;;;;4.73;4.33;;;13.80;99.90;;;;;;6146926;23;20918;-77
2023/05/20 02:25:25;;;;;;;4.50;4.20;;;13.50;99.90;;;;;;6134698;23;20598;-77
2023/05/20 02:27:52;;;;;;;6.13;4.53;;;13.50;99.90;;;;;;6147451;23;20454;-77
2023/05/20 02:30:20;;;;;;;6.07;4.63;;;13.50;99.90;;;;;;6148561;23;20433;-77
2023/05/20 02:32:48;;;;;;;4.70;4.40;;;13.40;99.90;;;;;;6138548;23;20441;-74
2023/05/20 02:35:15;;;;;;;4.73;4.30;;;13.70;99.90;;;;;;6141781;23;20470;-73
2023/05/20 02:37:43;;;;;;;4.90;4.35;;;13.30;99.90;;;;;;6139964;23;20449;-73
2023/05/20 02:40:11;;;;;;;4.80;4.37;;;13.30;99.90;;;;;;6148274;23;20714;-73
2023/05/20 02:42:38;;;;;;;4.93;4.50;;;13.20;99.90;;;;;;6135320;23;20767;-73
2023/05/20 02:45:06;;;;;;;5.87;4.70;;;13.20;99.90;;;;;;6147749;23;20513;-73
2023/05/20 02:47:35;;;;;;;5.70;5.20;;;13.20;99.90;;;;;;6140569;23;20455;-73
2023/05/20 02:50:02;;;;;;;5.27;4.77;;;13.20;99.90;;;;;;6137134;23;20436;-73
2023/05/20 02:52:29;;;;;;;4.90;4.47;;;13.40;99.90;;;;;;6145547;23;21022;-73
2023/05/20 02:54:56;;;;;;;5.23;4.73;;;13.10;99.90;;;;;;6147186;23;20524;-72
2023/05/20 02:57:23;;;;;;;5.97;4.80;;;13.50;99.90;;;;;;6150036;23;20429;-72
2023/05/20 02:59:51;;;;;;;4.90;4.50;;;13.10;99.90;;;;;;6137180;23;20506;-72
2023/05/20 03:02:18;;;;;;;4.57;4.27;;;13.10;99.90;;;;;;6146890;23;20893;-72
2023/05/20 03:04:47;;;;;;;4.87;4.47;;;13.10;99.90;;;;;;6140196;23;20472;-72
2023/05/20 03:07:16;;;;;;;5.30;4.80;;;13.10;99.90;;;;;;6138067;23;20489;-72
2023/05/20 03:09:43;;;;;;;4.80;4.40;;;13.20;99.90;;;;;;6149378;23;20436;-72
2023/05/20 03:12:10;;;;;;;4.60;4.10;;;13.10;99.90;;;;;;6141883;23;20429;-73
2023/05/20 03:14:37;;;;;;;4.80;4.40;;;13.10;99.90;;;;;;6133062;23;20433;-73
2023/05/20 03:17:05;;;;;;;4.80;4.40;;;13.10;99.90;;;;;;6146247;23;20961;-73
2023/05/20 03:19:32;;;;;;;4.70;4.30;;;13.40;99.90;;;;;;6149218;23;20466;-73
2023/05/20 03:22:00;;;;;;;4.33;4.03;;;13.20;99.90;;;;;;6149442;23;20999;-73
2023/05/20 03:24:28;;;;;;;4.80;4.43;;;13.20;99.90;;;;;;6148926;23;20474;-73
2023/05/20 03:26:55;;;;;;;4.90;4.53;;;13.20;99.90;;;;;;6143263;23;20459;-73
2023/05/20 03:29:22;;;;;;;5.07;4.57;;;13.50;99.90;;;;;;6146127;23;20856;-73
2023/05/20 03:31:50;;;;;;;5.17;4.60;;;13.20;99.90;;;;;;6146806;23;20442;-73
2023/05/20 03:34:17;;;;;;;5.30;4.90;;;13.20;99.90;;;;;;6127947;23;20795;-73
2023/05/20 03:36:45;;;;;;;4.57;4.17;;;13.20;99.90;;;;;;6146816;23;20461;-73
2023/05/20 03:39:13;;;;;;;5.60;5.10;;;13.20;99.90;;;;;;6143678;23;20478;-73
2023/05/20 03:41:40;;;;;;;4.60;4.20;;;13.10;99.90;;;;;;6147606;23;20424;-73
2023/05/20 03:44:07;;;;;;;4.70;4.30;;;13.10;99.90;;;;;;6144905;23;20425;-73
2023/05/20 03:46:34;;;;;;;4.67;4.37;;;13.10;99.90;;;;;;6148626;23;20473;-73
2023/05/20 03:49:02;;;;;;;5.03;4.63;;;13.10;99.90;;;;;;6145442;23;20444;-73
2023/05/20 03:51:30;;;;;;;5.00;4.60;;;13.00;99.90;;;;;;6138069;23;20437;-73
2023/05/20 03:53:57;;;;;;;4.50;4.20;;;13.10;99.90;;;;;;6145711;23;20441;-73
2023/05/20 03:56:26;;;;;;;4.70;4.30;;;13.00;99.90;;;;;;6149154;23;20839;-73
2023/05/20 03:58:53;;;;;;;4.72;4.32;;;13.20;99.90;;;;;;6148215;23;20432;-73
2023/05/20 04:01:24;;;;;;;5.37;4.97;;;12.90;99.90;;;;;;6142581;23;20209;-74
2023/05/20 04:03:51;;;;;;;5.22;4.82;;;12.90;99.90;;;;;;6148867;23;20913;-74
2023/05/20 04:06:18;;;;;;;5.27;4.80;;;12.90;99.90;;;;;;6146441;23;20215;-74
2023/05/20 04:08:46;;;;;;;5.40;4.90;;;12.90;99.90;;;;;;6141813;23;20461;-74
2023/05/20 04:11:13;;;;;;;5.00;4.60;;;12.90;99.90;;;;;;6148115;23;20494;-73
2023/05/20 04:13:41;;;;;;;6.23;4.40;;;12.90;99.90;;;;;;6149400;23;20430;-74
2023/05/20 04:16:08;;;;;;;5.03;4.50;;;12.90;99.90;;;;;;6146444;23;20491;-74
2023/05/20 04:18:37;;;;;;;4.83;4.43;;;12.90;99.90;;;;;;6137500;23;20433;-72
2023/05/20 04:21:04;;;;;;;4.57;4.27;;;12.60;99.90;;;;;;6144977;23;20433;-72
2023/05/20 04:23:32;;;;;;;4.83;4.43;;;13.00;99.90;;;;;;6138690;23;20445;-72
2023/05/20 04:26:01;;;;;;;4.70;4.40;;;13.00;99.90;;;;;;6142687;23;20781;-75
2023/05/20 04:28:30;;;;;;;4.67;4.37;;;13.00;99.90;;;;;;6146014;23;20433;-75
2023/05/20 04:31:03;;;;;;;5.03;4.63;;;13.10;99.90;;;;;;6141061;23;20532;-75
2023/05/20 04:33:31;;;;;;;4.80;4.40;;;13.10;99.90;;;;;;6135873;23;20437;-75
2023/05/20 04:35:59;;;;;;;6.60;4.63;;;13.10;99.90;;;;;;6140539;23;20897;-75
2023/05/20 04:38:28;;;;;;;4.83;4.43;;;13.20;99.90;;;;;;6142653;23;20945;-75
2023/05/20 04:40:57;;;;;;;4.70;4.13;;;13.20;99.90;;;;;;6147219;23;20432;-74
2023/05/20 04:43:28;;;;;;;4.93;4.53;;;13.30;99.90;;;;;;6147574;23;20438;-75
2023/05/20 04:45:55;;;;;;;4.90;4.40;;;13.30;99.90;;;;;;6146534;23;20466;-75
2023/05/20 04:48:24;;;;;;;4.90;4.60;;;13.40;99.90;;;;;;6145537;23;20438;-75
2023/05/20 04:50:51;;;;;;;4.97;4.60;;;13.40;99.90;;;;;;6137858;23;20521;-75
2023/05/20 04:53:18;;;;;;;4.60;4.27;;;13.60;99.90;;;;;;6146620;23;20438;-75
2023/05/20 04:55:46;;;;;;;4.90;4.50;;;13.40;99.90;;;;;;6146149;23;20458;-74
2023/05/20 04:58:16;;;;;;;6.07;5.47;;;13.50;99.90;;;;;;6139538;23;20439;-75
2023/05/20 05:00:43;;;;;;;4.70;4.40;;;13.50;99.90;;;;;;6146848;23;20445;-75
2023/05/20 05:03:11;;;;;;;5.67;5.27;;;13.50;99.90;;;;;;6146236;23;20504;-75
2023/05/20 05:05:41;;;;;;;4.83;4.43;;;13.50;99.90;;;;;;6147535;23;20875;-75
2023/05/20 05:08:08;;;;;;;4.80;4.50;;;13.50;99.90;;;;;;6142816;23;20434;-75
2023/05/20 05:10:36;;;;;;;4.93;4.60;;;13.50;99.90;;;;;;6148085;23;20522;-75
2023/05/20 05:13:03;;;;;;;5.37;4.97;;;13.60;99.90;;;;;;6136001;23;20438;-75
2023/05/20 05:15:30;;;;;;;5.00;4.50;;;13.60;99.90;;;;;;6139144;23;20545;-76
2023/05/20 05:17:57;;;;;;;5.00;4.33;;;13.70;99.90;;;;;;6134347;23;20469;-76
2023/05/20 05:20:24;;;;;;;5.00;4.60;;;13.70;99.90;;;;;;6145250;23;20928;-76
2023/05/20 05:22:53;;;;;;;4.60;4.20;;;13.90;99.90;;;;;;6136568;23;20784;-76
2023/05/20 05:25:20;;;;;;;5.10;4.60;;;14.00;99.90;;;;;;6139779;23;20455;-76
2023/05/20 05:27:48;;;;;;;5.40;5.00;;;14.10;99.90;;;;;;6124907;23;20944;-75
2023/05/20 05:30:15;;;;;;;5.20;4.80;;;14.20;99.90;;;;;;6148407;23;20425;-75
2023/05/20 05:32:42;;;;;;;5.30;4.90;;;14.30;99.90;;;;;;6147462;23;20826;-76
2023/05/20 05:35:09;;;;;;;5.37;4.87;;;14.40;99.90;;;;;;6140423;23;20464;-76
2023/05/20 05:37:36;;;;;;;4.77;4.37;;;14.40;99.90;;;;;;6145081;23;20433;-75
2023/05/20 05:40:06;;;;;;;5.40;4.90;;;14.50;99.90;;;;;;6143186;23;20508;-75
2023/05/20 05:42:34;;;;;;;5.60;5.00;;;14.60;99.90;;;;;;6148557;23;20913;-76
2023/05/20 05:45:01;;;;;;;5.00;4.60;;;14.70;99.90;;;;;;6131119;23;20460;-76
2023/05/20 05:47:31;;;;;;;5.57;5.17;;;14.80;99.90;;;;;;6138345;23;20461;-75
2023/05/20 05:49:58;;;;;;;5.50;5.10;;;14.80;99.90;;;;;;6137100;23;20433;-75
2023/05/20 05:52:26;;;;;;;4.97;4.47;;;14.90;99.90;;;;;;6143589;23;20429;-74
2023/05/20 05:54:54;;;;;;;5.30;4.80;;;14.90;99.90;;;;;;6147531;23;20909;-75
2023/05/20 05:57:23;;;;;;;6.00;5.50;;;15.00;99.90;;;;;;6141766;23;20565;-76
2023/05/20 05:59:51;;;;;;;5.63;5.23;;;15.10;99.90;;;;;;6140269;23;20436;-75
2023/05/20 06:02:17;;;;;;;5.37;4.97;;;15.20;99.90;;;;;;6141584;23;20448;-75
2023/05/20 06:04:45;;;;;;;5.47;4.97;;;15.30;99.90;;;;;;6148356;23;20448;-75
2023/05/20 06:07:11;;;;;;;5.63;5.13;;;15.40;99.90;;;;;;6139785;23;20543;-76
2023/05/20 06:09:39;;;;;;;5.23;4.83;;;15.50;99.90;;;;;;6139489;23;20436;-76
2023/05/20 06:12:07;;;;;;;5.53;5.13;;;15.50;99.90;;;;;;6142908;23;20773;-76
2023/05/20 06:14:35;;;;;;;7.43;5.77;;;15.60;99.90;;;;;;6139621;23;20511;-75
2023/05/20 06:17:03;;;;;;;5.60;5.10;;;15.70;99.90;;;;;;6136574;23;20459;-75
2023/05/20 06:19:30;;;;;;;5.60;5.10;;;15.80;99.90;;;;;;6139755;23;20436;-76
2023/05/20 06:21:57;;;;;;;5.37;4.97;;;15.90;99.90;;;;;;6151926;23;20847;-78
2023/05/20 06:24:24;;;;;;;5.33;4.93;;;16.00;99.90;;;;;;6140754;23;20483;-76
2023/05/20 06:26:52;;;;;;;4.93;4.53;;;16.10;99.90;;;;;;6147304;23;20823;-78
2023/05/20 06:29:19;;;;;;;5.70;5.20;;;16.20;99.90;;;;;;6117729;23;20864;-78
2023/05/20 06:31:47;;;;;;;6.00;5.60;;;16.40;99.90;;;;;;6126250;23;22464;-76
2023/05/20 06:34:14;;;;;;;6.30;5.80;;;16.50;99.90;;;;;;6133140;23;20475;-76
2023/05/20 06:36:41;;;;;;;5.80;5.30;;;16.50;99.90;;;;;;6144754;23;20460;-76
2023/05/20 06:39:11;;;;;;;6.40;5.90;;;16.40;99.90;;;;;;6132787;23;20472;-76
2023/05/20 06:41:38;;;;;;;6.43;5.93;;;16.40;99.90;;;;;;6130719;23;20438;-75
2023/05/20 06:44:06;;;;;;;6.43;5.83;;;16.40;99.90;;;;;;6136561;23;20463;-76
2023/05/20 06:46:33;;;;;;;6.07;5.67;;;16.50;99.90;;;;;;6148373;23;20499;-76
2023/05/20 06:49:02;;;;;;;5.90;5.30;;;16.50;99.90;;;;;;6141704;23;20995;-76
2023/05/20 06:51:28;;;;;;;6.50;6.10;;;16.60;99.90;;;;;;6142590;23;20424;-76
2023/05/20 06:53:55;;;;;;;6.43;5.93;;;16.70;99.90;;;;;;6146617;23;20551;-76
2023/05/20 06:56:23;;;;;;;5.97;5.47;;;16.80;99.90;;;;;;6136888;23;20551;-77
2023/05/20 06:58:50;;;;;;;6.87;6.27;;;16.70;99.90;;;;;;6142205;23;20436;-76
2023/05/20 07:01:17;;;;;;;6.50;6.10;;;16.60;99.90;;;;;;6146070;23;20435;-76
2023/05/20 07:03:44;;;;;;;6.47;5.97;;;16.50;99.90;;;;;;6129339;23;20474;-75
2023/05/20 07:06:12;;;;;;;6.20;5.70;;;16.60;99.90;;;;;;6138806;23;20587;-74
2023/05/20 07:08:39;;;;;;;6.33;5.83;;;16.70;99.90;;;;;;6130407;23;20471;-74
2023/05/20 07:11:07;;;;;;;6.13;5.73;;;16.90;99.90;;;;;;6151208;23;20424;-78
2023/05/20 07:13:34;;;;;;;6.20;5.70;;;17.10;99.90;;;;;;6131162;23;20941;-79
2023/05/20 07:16:01;;;;;;;6.20;5.70;;;17.50;99.90;;;;;;6136019;23;20789;-79
2023/05/20 07:18:28;;;;;;;6.27;5.67;;;17.50;99.90;;;;;;6145835;23;20912;-80
2023/05/20 07:20:55;;;;;;;6.30;5.20;;;17.70;99.90;;;;;;6144876;23;20493;-79
2023/05/20 07:23:24;;;;;;;6.20;5.73;;;17.90;99.90;;;;;;6138669;23;20697;-80
2023/05/20 07:25:51;;;;;;;5.83;5.33;;;18.20;99.90;;;;;;6133608;23;20468;-80
2023/05/20 07:28:20;;;;;;;6.03;5.53;;;18.40;99.90;;;;;;6130821;23;20453;-84
2023/05/20 07:30:49;;;;;;;5.90;5.50;;;18.60;99.90;;;;;;6136467;23;20967;-84
2023/05/20 07:33:16;;;;;;;5.93;5.53;;;18.70;99.90;;;;;;6143249;23;20437;-87
2023/05/20 07:35:44;;;;;;;5.50;5.00;;;18.80;99.90;;;;;;6136156;23;21090;-85
2023/05/20 07:38:12;;;;;;;5.07;4.77;;;18.90;99.90;;;;;;6139361;23;20483;-85
2023/05/20 07:40:40;;;;;;;5.50;5.10;;;19.10;99.90;;;;;;6148207;23;20491;-86
2023/05/20 07:43:08;;;;;;;5.77;5.37;;;19.20;99.90;;;;;;6125032;23;20461;-75
2023/05/20 07:45:35;;;;;;;5.87;5.47;;;19.30;99.90;;;;;;6131176;23;20539;-73
2023/05/20 07:48:03;;;;;;;5.67;5.17;;;19.30;99.90;;;;;;6135789;23;20543;-72
2023/05/20 07:50:30;;;;;;;6.53;6.00;;;19.20;99.90;;;;;;6127822;23;21001;-73
2023/05/20 07:52:57;;;;;;;5.10;4.80;;;19.30;99.90;;;;;;6139290;23;20777;-74
2023/05/20 07:55:24;;;;;;;5.80;5.40;;;19.30;99.90;;;;;;6144687;23;20964;-73
2023/05/20 07:57:53;;;;;;;5.77;5.37;;;19.40;99.90;;;;;;6152921;23;20467;-73
2023/05/20 08:00:20;;;;;;;5.40;5.00;;;19.50;99.90;;;;;;6145033;23;20471;-73
2023/05/20 08:02:47;;;;;;;5.80;5.40;;;19.80;99.90;;;;;;6147771;23;20460;-74
2023/05/20 08:05:14;;;;;;;5.80;5.30;;;20.10;99.90;;;;;;6147564;23;20457;-73
2023/05/20 08:07:41;;;;;;;5.80;5.40;;;20.50;99.90;;;;;;6132722;23;20479;-73
2023/05/20 08:10:10;;;;;;;6.30;5.80;;;20.70;99.90;;;;;;6110421;23;20803;-74
2023/05/20 08:12:37;;;;;;;6.00;5.60;;;20.80;99.90;;;;;;6108392;23;20437;-73
2023/05/20 08:15:06;;;;;;;4.70;4.30;;;20.60;99.90;;;;;;6094876;23;20456;-74
2023/05/20 08:17:34;;;;;;;5.70;5.30;;;20.80;99.90;;;;;;6116393;23;20482;-73
2023/05/20 08:20:01;;;;;;;5.77;5.30;;;21.20;99.90;;;;;;6114814;23;20429;-75
2023/05/20 08:22:28;;;;;;;5.30;4.90;;;21.60;99.90;;;;;;6117846;23;20508;-75
2023/05/20 08:24:55;;;;;;;6.50;6.00;;;21.80;99.90;;;;;;6135018;23;20984;-75
2023/05/20 08:27:22;;;;;;;5.87;5.27;;;21.90;99.90;;;;;;6138314;23;20873;-74
2023/05/20 08:29:49;;;;;;;4.93;4.57;;;22.00;99.90;;;;;;6144891;23;20434;-74
2023/05/20 08:32:17;;;;;;;5.60;5.20;;;22.00;99.90;;;;;;6145459;23;20460;-74
2023/05/20 08:34:44;;;;;;;5.40;4.90;;;22.00;99.90;;;;;;6144008;23;21012;-74
2023/05/20 08:37:11;;;;;;;5.77;5.37;;;22.00;99.90;;;;;;6145579;23;20427;-75
2023/05/20 08:39:39;;;;;;;8.77;8.00;;;22.10;99.90;;;;;;6140416;23;20445;-75
2023/05/20 08:42:06;;;;;;;6.03;5.63;;;21.90;99.90;;;;;;6138258;23;20429;-76
2023/05/20 08:44:34;;;;;;;5.27;4.97;;;21.90;99.90;;;;;;6133739;23;23497;-74
2023/05/20 08:47:03;;;;;;;5.50;5.00;;;21.90;99.90;;;;;;6124483;23;20519;-74
2023/05/20 08:49:31;;;;;;;5.70;5.20;;;22.00;99.90;;;;;;6142203;23;20998;-74
2023/05/20 08:52:00;;;;;;;5.80;5.40;;;22.20;99.90;;;;;;6104774;23;20933;-74
2023/05/20 08:54:37;;;;;;;5.83;5.40;;;22.10;99.90;;;;;;6125076;23;21153;-74
2023/05/20 08:57:04;;;;;;;5.10;4.70;;;22.30;99.90;;;;;;6126859;23;20454;-74
2023/05/20 08:59:32;;;;;;;5.13;4.73;;;22.60;99.90;;;;;;6125601;23;20436;-74
2023/05/20 09:01:59;;;;;;;4.80;4.40;;;23.00;99.90;;;;;;6134513;23;20785;-74
2023/05/20 09:04:26;;;;;;;4.50;4.20;;;23.40;99.90;;;;;;6142955;23;20517;-74
2023/05/20 09:06:55;;;;;;;5.20;4.80;;;23.80;99.90;;;;;;6139376;23;20555;-75
2023/05/20 09:09:22;;;;;;;5.50;5.10;;;24.40;99.90;;;;;;6139115;23;20437;-74
2023/05/20 09:11:49;;;;;;;5.20;4.80;;;24.50;99.90;;;;;;6137242;23;20540;-76
2023/05/20 09:14:16;;;;;;;5.00;4.70;;;24.50;99.90;;;;;;6135637;23;20468;-75
2023/05/20 09:16:43;;;;;;;5.00;4.60;;;24.60;99.90;;;;;;6120072;23;20435;-74
2023/05/20 09:19:11;;;;;;;5.20;4.90;;;24.80;99.90;;;;;;6134985;23;20471;-74
2023/05/20 09:21:40;;;;;;;5.13;4.73;;;25.10;99.90;;;;;;6136928;23;20846;-75
2023/05/20 09:24:09;;;;;;;4.87;4.57;;;25.50;99.90;;;;;;6124451;23;20457;-74
2023/05/20 09:26:36;;;;;;;5.27;4.27;;;25.80;99.90;;;;;;6131711;23;20467;-75
2023/05/20 09:29:03;;;;;;;4.87;4.57;;;25.90;99.90;;;;;;6120298;23;21771;-76
2023/05/20 09:31:32;;;;;;;5.40;4.97;;;25.90;99.70;;;;;;6144511;23;20433;-75
2023/05/20 09:34:01;;;;;;;5.87;5.47;;;26.10;99.40;;;;;;6132017;23;20447;-83
2023/05/20 09:36:30;;;;;;;4.73;4.43;;;26.20;98.40;;;;;;6137900;23;20439;-86
2023/05/20 09:39:02;;;;;;;5.17;4.77;;;26.10;98.50;;;;;;6130709;23;20445;-75
2023/05/20 09:41:34;;;;;;;4.73;4.43;;;25.90;98.20;;;;;;6120346;23;20436;-75
2023/05/20 09:44:02;;;;;;;6.40;5.90;;;25.70;98.50;;;;;;6114604;23;20482;-75
2023/05/20 09:46:30;;;;;;;5.40;5.00;;;25.00;98.50;;;;;;6119469;23;20421;-75
2023/05/20 09:48:58;;;;;;;5.43;5.13;;;24.30;99.20;;;;;;6119999;23;20775;-75
2023/05/20 09:51:28;;;;;;;5.17;4.77;;;23.90;99.70;;;;;;6129456;23;20931;-75
2023/05/20 09:53:56;;;;;;;5.30;4.90;;;23.70;99.90;;;;;;6146170;23;20575;-75
2023/05/20 09:56:25;;;;;;;4.80;4.40;;;23.70;99.90;;;;;;6129612;23;20436;-75
2023/05/20 09:58:57;;;;;;;5.20;4.80;;;23.90;99.90;;;;;;6136442;23;20961;-75
2023/05/20 10:01:24;;;;;;;5.23;4.83;;;24.40;99.90;;;;;;6167995;23;20433;-75
2023/05/20 10:03:52;;;;;;;5.30;4.90;;;25.00;99.80;;;;;;6178936;23;20431;-75
2023/05/20 10:06:36;;;;;;;5.40;5.00;;;25.40;98.90;;;;;;6150644;23;20951;-75
2023/05/20 10:09:19;;;;;;;5.43;5.03;;;25.60;98.50;;;;;;6140379;23;20503;-75
2023/05/20 10:12:07;;;;;;;5.07;4.50;;;25.80;97.70;;;;;;6119336;23;20497;-75
2023/05/20 10:14:47;;;;;;;5.47;4.93;;;25.60;98.00;;;;;;6119481;23;20477;-75
2023/05/20 10:17:26;;;;;;;5.20;4.80;;;25.50;98.20;;;;;;6130141;23;20444;-75
2023/05/20 10:19:58;;;;;;;4.50;4.20;;;25.70;98.40;;;;;;6147094;23;21132;-75
2023/05/20 10:22:30;;;;;;;5.00;4.50;;;26.10;98.00;;;;;;6136862;23;20433;-75
2023/05/20 10:25:05;;;;;;;4.17;3.87;;;26.60;97.60;;;;;;6134698;23;21023;-75
2023/05/20 10:27:42;;;;;;;4.70;4.30;;;26.90;96.70;;;;;;6141448;23;20973;-75
2023/05/20 10:30:17;;;;;;;4.83;4.53;;;27.10;96.30;;;;;;6141764;23;20511;-75
2023/05/20 10:32:51;;;;;;;4.73;4.43;;;27.30;95.80;;;;;;6131275;23;20474;-75
2023/05/20 10:35:25;;;;;;;4.97;4.57;;;27.30;95.40;;;;;;6148847;23;20450;-75
2023/05/20 10:37:53;;;;;;;5.00;4.70;;;27.30;95.50;;;;;;6149444;23;20436;-75
2023/05/20 10:40:22;;;;;;;6.20;5.70;;;27.00;95.10;;;;;;6120972;23;20472;-75
2023/05/20 10:42:49;;;;;;;5.37;5.00;;;26.60;95.20;;;;;;6143578;23;20861;-75
2023/05/20 10:45:27;;;;;;;5.10;4.80;;;26.50;95.90;;;;;;6148807;23;20441;-75
2023/05/20 10:47:55;;;;;;;4.80;4.50;;;26.70;95.40;;;;;;6149384;23;20935;-76
2023/05/20 10:50:33;;;;;;;5.10;4.70;;;27.00;95.20;;;;;;6147442;23;20459;-75
2023/05/20 10:53:04;;;;;;;5.50;5.10;;;27.60;94.80;;;;;;6148521;23;20439;-75
2023/05/20 10:55:37;;;;;;;4.57;4.27;;;28.10;93.40;;;;;;6140690;23;20485;-75
2023/05/20 10:58:04;;;;;;;5.20;4.90;;;28.40;93.30;;;;;;6117713;23;20928;-75
2023/05/20 11:00:34;;;;;;;4.50;4.20;;;28.20;91.80;;;;;;6121752;23;20426;-75
2023/05/20 11:03:01;;;;;;;4.97;4.57;;;27.60;93.10;;;;;;6120093;23;20493;-75
2023/05/20 11:05:30;;;;;;;4.37;4.07;;;27.70;92.50;;;;;;6119343;23;20544;-75
2023/05/20 11:08:02;;;;;;;5.07;4.60;;;27.60;92.40;;;;;;6119453;23;20453;-75
2023/05/20 11:10:30;;;;;;;4.60;4.30;;;27.40;92.60;;;;;;6145313;23;20476;-75
2023/05/20 11:12:57;;;;;;;4.77;4.37;;;27.40;92.90;;;;;;6138486;23;20461;-75
2023/05/20 11:15:24;;;;;;;5.23;4.73;;;27.60;92.60;;;;;;6150456;23;20456;-75
2023/05/20 11:17:54;;;;;;;5.10;4.70;;;27.80;92.30;;;;;;6119757;23;20472;-75
2023/05/20 11:20:22;;;;;;;4.93;4.63;;;28.00;92.40;;;;;;6119413;23;20429;-76
2023/05/20 11:22:50;;;;;;;4.90;4.60;;;28.20;92.00;;;;;;6120505;23;20436;-75
2023/05/20 11:25:17;;;;;;;4.67;4.33;;;28.60;91.70;;;;;;6115001;23;20989;-77
2023/05/20 11:27:45;;;;;;;4.83;4.53;;;29.00;91.20;;;;;;6132451;23;20508;-79
2023/05/20 11:30:15;;;;;;;4.43;4.03;;;29.40;90.30;;;;;;6144352;23;20906;-78
2023/05/20 11:32:43;;;;;;;4.87;4.40;;;29.50;89.60;;;;;;6123741;23;20905;-76
2023/05/20 11:35:23;;;;;;;4.33;4.03;;;29.30;89.00;;;;;;6122898;23;20463;-77
2023/05/20 11:37:56;;;;;;;4.37;4.07;;;29.00;89.20;;;;;;6144470;23;20471;-78
2023/05/20 11:40:27;;;;;;;5.00;4.70;;;28.60;90.00;;;;;;6145856;23;20433;-77
2023/05/20 11:42:56;;;;;;;5.40;4.53;;;28.60;90.00;;;;;;6145340;23;20464;-74
2023/05/20 11:45:23;;;;;;;4.83;4.53;;;28.60;89.10;;;;;;6139439;23;20458;-75
2023/05/20 11:48:03;;;;;;;4.40;4.10;;;28.60;89.80;;;;;;6143301;23;20523;-75
2023/05/20 11:50:38;;;;;;;4.60;4.30;;;28.70;89.10;;;;;;6147888;23;20454;-75
2023/05/20 11:53:06;;;;;;;4.60;4.30;;;28.60;89.00;;;;;;6132581;23;20848;-75
2023/05/20 11:55:34;;;;;;;4.63;4.23;;;28.50;89.60;;;;;;6160992;23;20453;-75
2023/05/20 11:58:02;;;;;;;4.20;3.90;;;28.50;88.20;;;;;;6126000;23;20516;-77
2023/05/20 12:00:29;;;;;;;4.73;4.43;;;27.90;88.60;;;;;;6131065;23;20429;-76
2023/05/20 12:02:57;;;;;;;4.77;4.47;;;27.90;89.90;;;;;;6148580;23;20441;-75
2023/05/20 12:05:24;;;;;;;4.80;4.50;;;27.80;90.10;;;;;;6148475;23;21035;-75
2023/05/20 12:07:52;;;;;;;5.00;4.70;;;27.50;90.20;;;;;;6150398;23;20502;-75
2023/05/20 12:10:19;;;;;;;4.57;4.27;;;27.50;90.40;;;;;;6145275;23;20559;-75
2023/05/20 12:12:46;;;;;;;5.40;5.00;;;27.60;90.10;;;;;;6146504;23;20437;-75
2023/05/20 12:15:13;;;;;;;5.10;4.70;;;27.70;90.00;;;;;;6123878;23;20458;-75
2023/05/20 12:17:48;;;;;;;4.60;4.30;;;27.60;90.30;;;;;;6148872;23;20496;-75
2023/05/20 12:20:16;;;;;;;5.13;4.47;;;27.60;90.30;;;;;;6132114;23;20475;-76
2023/05/20 12:22:44;;;;;;;5.00;4.60;;;27.60;90.10;;;;;;6130223;23;20432;-76
2023/05/20 12:25:14;;;;;;;5.10;4.80;;;27.80;90.00;;;;;;6143681;23;20476;-76
2023/05/20 12:27:42;;;;;;;5.33;4.83;;;28.10;89.70;;;;;;6143000;23;20509;-75
2023/05/20 12:30:10;;;;;;;4.53;4.23;;;28.30;88.80;;;;;;6135476;23;20981;-76
2023/05/20 12:32:38;;;;;;;4.60;4.30;;;28.40;88.70;;;;;;6147593;23;20465;-76
2023/05/20 12:35:06;;;;;;;8.00;4.50;;;28.50;89.00;;;;;;6149556;23;20444;-76
2023/05/20 12:37:33;;;;;;;4.50;4.20;;;28.60;87.70;;;;;;6137522;23;20444;-76
2023/05/20 12:40:00;;;;;;;4.60;4.30;;;28.80;87.70;;;;;;6128262;23;20427;-77
2023/05/20 12:42:28;;;;;;;5.57;4.20;;;29.00;86.90;;;;;;6125392;23;20803;-75
2023/05/20 12:44:56;;;;;;;4.60;4.20;;;29.30;87.00;;;;;;6130543;23;20861;-76
2023/05/20 12:47:23;;;;;;;5.33;4.90;;;29.70;85.70;;;;;;6132271;23;20458;-76
2023/05/20 12:49:50;;;;;;;4.93;4.63;;;29.90;85.20;;;;;;6134332;23;21105;-76
2023/05/20 12:52:17;;;;;;;5.33;4.87;;;29.90;83.90;;;;;;6119471;23;20547;-76
2023/05/20 12:54:44;;;;;;;4.70;4.40;;;29.90;82.90;;;;;;6135076;23;20486;-76